Time;durP1;ratioP1;P1;durP2;ratioP2;P2;SDS_P1;SDS_P2;PMS_P1;PMS_P2;Temp;Humidity;BMP_temperature;BMP_pressure;BME280_temperature;BME280_humidity;BME280_pressure;Samples;Min_cycle;Max_cycle;Signal;HPM_P1;HPM_P2
2023/06/07 00:00:46;;;;;;;10.20;5.60;;;;;;;14.38;100.00;101487.09;105934;1260;73589;-86
2023/06/07 00:03:14;;;;;;;11.20;4.20;;;;;;;14.33;100.00;101488.27;106275;1255;62527;-84
2023/06/07 00:05:43;;;;;;;5.70;3.90;;;;;;;14.28;100.00;101484.75;106023;1254;72463;-86
2023/06/07 00:08:11;;;;;;;7.90;4.60;;;;;;;14.24;100.00;101488.30;105874;1254;60764;-86
2023/06/07 00:10:39;;;;;;;10.40;4.30;;;;;;;14.21;100.00;101487.28;105793;1254;60448;-84
2023/06/07 00:13:07;;;;;;;11.60;4.20;;;;;;;14.17;100.00;101487.17;105649;1260;73925;-85
2023/06/07 00:15:34;;;;;;;5.90;3.70;;;;;;;14.14;100.00;101490.53;105730;1254;63709;-89
2023/06/07 00:18:02;;;;;;;8.20;4.10;;;;;;;14.08;100.00;101487.34;105819;1260;71458;-85
2023/06/07 00:20:30;;;;;;;6.50;4.50;;;;;;;14.05;100.00;101486.52;107827;1254;60833;-85
2023/06/07 00:22:58;;;;;;;7.70;4.90;;;;;;;14.02;100.00;101487.02;109731;1253;58893;-85
2023/06/07 00:25:25;;;;;;;5.90;4.60;;;;;;;14.01;100.00;101489.20;107410;1254;72733;-87
2023/06/07 00:27:54;;;;;;;8.90;4.60;;;;;;;14.00;100.00;101488.73;106005;1258;63546;-86
2023/06/07 00:30:21;;;;;;;5.70;4.10;;;;;;;13.97;100.00;101484.17;105958;1256;72700;-84
2023/06/07 00:32:49;;;;;;;6.60;4.20;;;;;;;13.93;100.00;101485.13;105912;1257;61620;-84
2023/06/07 00:35:17;;;;;;;6.80;5.00;;;;;;;13.88;100.00;101484.52;105899;1256;60438;-88
2023/06/07 00:37:44;;;;;;;6.60;5.00;;;;;;;13.82;100.00;101486.31;105740;1258;71383;-85
2023/06/07 00:40:12;;;;;;;5.70;4.30;;;;;;;13.76;100.00;101484.55;105755;1254;62496;-85
2023/06/07 00:42:40;;;;;;;13.60;4.80;;;;;;;13.72;100.00;101486.05;105713;1257;72664;-83
2023/06/07 00:45:08;;;;;;;7.00;5.20;;;;;;;13.67;100.00;101483.85;105778;1254;60508;-84
2023/06/07 00:47:37;;;;;;;5.10;4.60;;;;;;;13.63;100.00;101482.11;105872;1257;60782;-83
2023/06/07 00:50:06;;;;;;;6.60;4.90;;;;;;;13.61;100.00;101480.85;105814;1257;72764;-84
2023/06/07 00:52:34;;;;;;;7.30;4.70;;;;;;;13.58;100.00;101482.41;105668;1257;62405;-83
2023/06/07 00:55:09;;;;;;;7.00;4.20;;;;;;;13.56;100.00;101484.83;105699;1255;72648;-88
2023/06/07 00:57:38;;;;;;;7.40;4.50;;;;;;;13.55;100.00;101485.06;105869;1253;60817;-86
2023/06/07 01:00:09;;;;;;;7.20;4.20;;;;;;;13.54;100.00;101483.58;105780;1254;62787;-86
2023/06/07 01:02:37;;;;;;;8.60;4.80;;;;;;;13.53;100.00;101486.39;105844;1254;75710;-85
2023/06/07 01:05:06;;;;;;;9.70;4.90;;;;;;;13.54;100.00;101488.69;105869;1256;62453;-87
2023/06/07 01:07:34;;;;;;;6.80;4.40;;;;;;;13.53;100.00;101485.38;105777;1255;72605;-86
2023/06/07 01:10:02;;;;;;;6.10;3.90;;;;;;;13.51;100.00;101487.05;105679;1256;60633;-84
2023/06/07 01:12:30;;;;;;;10.80;4.70;;;;;;;13.50;100.00;101484.48;105711;1259;60629;-85
2023/06/07 01:14:59;;;;;;;12.30;4.60;;;;;;;13.47;100.00;101479.19;105673;1260;74103;-83
2023/06/07 01:17:28;;;;;;;5.20;4.30;;;;;;;13.45;100.00;101477.56;105811;1257;62392;-83
2023/06/07 01:19:57;;;;;;;4.60;3.90;;;;;;;13.44;100.00;101478.88;105720;1255;71433;-86
2023/06/07 01:22:27;;;;;;;7.50;4.80;;;;;;;13.41;100.00;101476.25;105709;1254;62685;-85
2023/06/07 01:24:55;;;;;;;7.50;4.10;;;;;;;13.39;100.00;101472.30;105898;1254;60441;-85
2023/06/07 01:27:27;;;;;;;7.70;4.20;;;;;;;13.38;100.00;101475.36;105656;1259;74033;-85
2023/06/07 01:29:55;;;;;;;7.60;4.10;;;;;;;13.37;100.00;101477.52;105791;1252;62430;-85
2023/06/07 01:32:23;;;;;;;6.60;3.80;;;;;;;13.35;100.00;101472.88;105796;1255;71014;-85
2023/06/07 01:34:51;;;;;;;9.90;4.40;;;;;;;13.33;100.00;101477.58;105727;1254;61655;-85
2023/06/07 01:37:20;;;;;;;7.20;4.50;;;;;;;13.30;100.00;101476.52;105737;1258;61801;-86
2023/06/07 01:39:47;;;;;;;12.10;4.80;;;;;;;13.27;100.00;101474.55;105831;1257;73945;-84
2023/06/07 01:42:15;;;;;;;7.60;4.60;;;;;;;13.24;100.00;101475.08;105449;1254;62589;-86
2023/06/07 01:44:45;;;;;;;6.20;4.30;;;;;;;13.22;100.00;101469.41;105702;1254;73318;-87
2023/06/07 01:47:14;;;;;;;9.40;3.80;;;;;;;13.19;100.00;101469.90;105765;1253;62080;-84
2023/06/07 01:49:42;;;;;;;7.00;4.60;;;;;;;13.17;100.00;101467.55;105558;1254;60462;-85
2023/06/07 01:52:10;;;;;;;7.50;4.80;;;;;;;13.16;100.00;101469.05;105798;1257;73900;-84
2023/06/07 01:54:38;;;;;;;6.10;3.90;;;;;;;13.14;100.00;101466.48;105948;1256;63854;-84
2023/06/07 01:57:25;;;;;;;5.20;4.20;;;;;;;13.14;100.00;101464.73;105758;1261;71676;-84
2023/06/07 02:00:04;;;;;;;5.30;3.40;;;;;;;13.15;100.00;101465.23;105822;1257;61777;-83
2023/06/07 02:02:58;;;;;;;6.90;4.40;;;;;;;13.15;100.00;101467.86;106044;1256;60919;-85
2023/06/07 02:05:34;;;;;;;8.70;4.20;;;;;;;13.16;100.00;101465.52;106041;1254;73419;-87
2023/06/07 02:08:07;;;;;;;6.90;4.00;;;;;;;13.18;100.00;101471.02;106067;1254;63571;-84
2023/06/07 02:10:36;;;;;;;5.40;3.50;;;;;;;13.21;100.00;101472.26;106085;1253;72783;-85
2023/06/07 02:13:04;;;;;;;6.30;3.50;;;;;;;13.24;100.00;101472.23;105698;1254;61885;-84
2023/06/07 02:15:32;;;;;;;4.00;3.60;;;;;;;13.28;100.00;101473.63;105886;1254;60536;-85
2023/06/07 02:18:01;;;;;;;7.40;3.50;;;;;;;13.31;100.00;101474.55;106112;1254;72661;-84
2023/06/07 02:20:30;;;;;;;6.00;3.70;;;;;;;13.34;100.00;101471.71;106059;1253;62492;-85
2023/06/07 02:24:46;;;;;;;7.40;3.40;;;;;;;13.47;100.00;101469.39;102777;1292;599418;-85
2023/06/07 02:27:14;;;;;;;3.60;3.20;;;;;;;13.52;100.00;101469.30;105991;1259;60384;-85
2023/06/07 02:29:45;;;;;;;8.60;3.40;;;;;;;13.57;100.00;101466.88;105622;1259;59581;-85
2023/06/07 02:32:12;;;;;;;8.70;4.50;;;;;;;13.62;100.00;101461.84;105671;1254;73511;-85
2023/06/07 02:34:43;;;;;;;11.60;4.10;;;;;;;13.67;100.00;101461.69;105896;1254;64006;-87
2023/06/07 02:37:11;;;;;;;11.80;4.50;;;;;;;13.72;100.00;101466.70;104996;1260;953125;-86
2023/06/07 02:39:39;;;;;;;5.90;4.00;;;;;;;13.76;100.00;101474.54;105913;1257;59754;-85
2023/06/07 02:42:08;;;;;;;8.40;4.00;;;;;;;13.81;100.00;101474.57;106056;1256;59263;-86
2023/06/07 02:44:38;;;;;;;6.70;3.80;;;;;;;13.85;100.00;101473.11;106344;1254;71244;-85
2023/06/07 02:47:07;;;;;;;7.20;3.80;;;;;;;13.87;100.00;101470.67;105906;1258;63896;-85
2023/06/07 02:49:34;;;;;;;5.40;3.50;;;;;;;13.91;100.00;101472.59;105877;1255;71255;-85
2023/06/07 02:52:02;;;;;;;7.20;3.20;;;;;;;13.93;100.00;101471.25;105861;1267;61774;-85
2023/06/07 02:54:30;;;;;;;7.80;3.60;;;;;;;13.95;100.00;101472.31;106591;1252;60502;-84
2023/06/07 02:56:59;;;;;;;6.90;3.50;;;;;;;13.99;100.00;101474.55;105956;1256;72185;-84
2023/06/07 02:59:27;;;;;;;10.00;3.40;;;;;;;14.03;100.00;101471.64;105859;1254;63841;-85
2023/06/07 03:01:54;;;;;;;6.00;3.60;;;;;;;14.08;100.00;101471.16;105857;1252;71441;-85
2023/06/07 03:04:26;;;;;;;11.90;3.50;;;;;;;14.16;100.00;101473.89;105782;1256;60714;-88
2023/06/07 03:06:55;;;;;;;9.20;3.50;;;;;;;14.23;100.00;101476.74;105933;1267;59564;-89
2023/06/07 03:09:30;;;;;;;6.30;3.60;;;;;;;14.31;100.00;101481.04;105878;1256;73337;-88
2023/06/07 03:11:58;;;;;;;10.30;4.10;;;;;;;14.37;100.00;101481.70;106019;1256;62468;-87
2023/06/07 03:14:29;;;;;;;6.30;3.40;;;;;;;14.46;100.00;101480.46;106057;1256;75284;-86
2023/06/07 03:16:57;;;;;;;5.70;3.40;;;;;;;14.54;100.00;101483.52;105996;1257;59648;-85
2023/06/07 03:19:25;;;;;;;10.00;3.60;;;;;;;14.61;100.00;101484.66;105953;1258;60085;-87
2023/06/07 03:21:53;;;;;;;7.10;4.20;;;;;;;14.68;100.00;101484.74;106962;1251;73093;-84
2023/06/07 03:24:23;;;;;;;10.80;7.20;;;;;;;14.74;100.00;101488.20;109743;1251;62472;-84
2023/06/07 03:28:23;;;;;;;10.90;7.10;;;;;;;14.88;100.00;101480.98;102866;1294;617663;-86
2023/06/07 03:30:52;;;;;;;12.90;6.90;;;;;;;14.95;100.00;101482.46;105170;1266;62049;-85
2023/06/07 03:33:27;;;;;;;7.20;4.80;;;;;;;15.06;100.00;101479.49;105188;1264;60084;-86
2023/06/07 03:35:56;;;;;;;8.20;2.60;;;;;;;15.16;100.00;101481.33;105150;1264;72201;-84
2023/06/07 03:38:28;;;;;;;8.40;3.40;;;;;;;15.26;100.00;101481.36;105062;1267;64122;-87
2023/06/07 03:40:55;;;;;;;9.60;3.10;;;;;;;15.35;100.00;101479.32;104615;1270;808491;-87
2023/06/07 03:43:23;;;;;;;13.30;4.00;;;;;;;15.45;100.00;101483.25;106291;1257;60513;-85
2023/06/07 03:45:50;;;;;;;15.40;3.80;;;;;;;15.54;100.00;101481.27;107717;1252;60083;-83
2023/06/07 03:48:17;;;;;;;8.60;3.70;;;;;;;15.61;100.00;101480.45;107345;1251;71901;-83
2023/06/07 03:50:44;;;;;;;13.20;5.20;;;;;;;15.68;100.00;101479.78;107180;1256;63963;-84
2023/06/07 03:53:13;;;;;;;16.90;6.00;;;;;;;15.75;100.00;101481.12;106427;1257;72805;-85
2023/06/07 03:55:41;;;;;;;16.70;7.10;;;;;;;15.84;100.00;101483.89;106162;1254;60153;-86
2023/06/07 03:58:08;;;;;;;17.20;8.60;;;;;;;15.92;100.00;101488.20;106027;1256;60301;-84
2023/06/07 04:00:36;;;;;;;21.20;7.70;;;;;;;16.02;100.00;101487.36;106090;1251;72939;-87
2023/06/07 04:03:03;;;;;;;24.00;11.50;;;;;;;16.12;100.00;101486.70;105958;1257;64028;-87
2023/06/07 04:05:30;;;;;;;16.00;8.60;;;;;;;16.23;99.77;101489.98;106045;1253;72585;-85
2023/06/07 04:07:59;;;;;;;27.70;9.90;;;;;;;16.35;98.49;101488.08;106012;1258;59736;-86
2023/06/07 04:10:29;;;;;;;33.50;19.90;;;;;;;16.52;98.41;101488.13;106063;1256;60328;-85
2023/06/07 04:12:57;;;;;;;29.70;11.80;;;;;;;16.76;98.51;101490.11;105968;1254;73075;-83
2023/06/07 04:15:24;;;;;;;33.20;11.90;;;;;;;17.05;97.75;101490.13;105914;1256;62400;-84
2023/06/07 04:17:51;;;;;;;31.60;10.90;;;;;;;17.40;97.53;101490.95;106092;1256;72530;-84
2023/06/07 04:20:18;;;;;;;25.00;10.70;;;;;;;17.83;94.97;101486.95;105999;1264;60407;-87
2023/06/07 04:22:46;;;;;;;23.00;10.30;;;;;;;18.37;91.75;101487.56;106291;1255;59655;-84
2023/06/07 04:25:16;;;;;;;28.70;11.20;;;;;;;18.93;89.45;101480.58;106056;1258;71767;-87
2023/06/07 04:27:48;;;;;;;26.50;11.10;;;;;;;19.53;86.58;101484.88;106153;1256;63742;-87
2023/06/07 04:30:18;;;;;;;30.30;13.00;;;;;;;20.13;81.89;101488.17;106093;1255;72625;-87
2023/06/07 04:32:46;;;;;;;27.30;12.60;;;;;;;20.69;76.05;101487.31;106151;1255;60357;-88
2023/06/07 04:35:14;;;;;;;29.50;13.00;;;;;;;21.24;72.15;101482.77;106058;1256;60407;-86
2023/06/07 04:37:45;;;;;;;28.10;14.20;;;;;;;21.77;71.25;101484.45;106138;1255;71574;-86
2023/06/07 04:40:14;;;;;;;32.30;13.80;;;;;;;22.28;68.20;101485.00;106041;1254;62679;-87
2023/06/07 04:42:46;;;;;;;29.80;12.70;;;;;;;22.74;65.51;101488.17;106095;1256;72694;-85
2023/06/07 04:45:13;;;;;;;24.90;13.50;;;;;;;23.24;62.65;101484.40;105853;1254;59715;-87
2023/06/07 04:47:45;;;;;;;26.30;11.90;;;;;;;23.68;55.23;101484.38;106492;1254;60157;-87
2023/06/07 04:50:14;;;;;;;30.30;11.50;;;;;;;24.11;54.70;101483.71;107151;1255;71916;-86
2023/06/07 04:52:43;;;;;;;28.60;11.70;;;;;;;24.54;53.32;101481.00;106340;1254;64029;-87
2023/06/07 04:55:11;;;;;;;28.90;11.40;;;;;;;24.98;50.17;101479.40;105827;1257;71483;-88
2023/06/07 04:57:39;;;;;;;20.90;10.30;;;;;;;25.35;47.04;101479.88;105910;1256;60762;-85
2023/06/07 05:00:10;;;;;;;22.60;9.80;;;;;;;25.68;43.93;101478.05;105972;1257;59567;-86
2023/06/07 05:02:43;;;;;;;20.20;10.20;;;;;;;26.01;41.46;101480.86;105949;1254;72186;-85
2023/06/07 05:05:13;;;;;;;22.00;9.70;;;;;;;26.33;39.88;101479.04;106081;1252;63331;-87
2023/06/07 05:07:41;;;;;;;17.70;8.60;;;;;;;26.67;39.95;101477.75;105990;1253;73551;-87
2023/06/07 05:10:09;;;;;;;17.50;9.00;;;;;;;26.99;38.97;101479.00;105993;1255;59800;-85
2023/06/07 05:12:39;;;;;;;17.40;7.50;;;;;;;27.32;39.11;101474.05;105899;1254;60382;-87
2023/06/07 05:15:07;;;;;;;22.30;7.60;;;;;;;27.62;37.58;101476.81;105931;1256;73103;-85
2023/06/07 05:17:36;;;;;;;25.10;8.60;;;;;;;27.90;37.04;101476.55;105912;1257;64112;-89
2023/06/07 05:20:10;;;;;;;13.60;6.90;;;;;;;28.17;35.76;101478.84;105881;1254;72865;-87
2023/06/07 05:22:40;;;;;;;19.30;8.30;;;;;;;28.46;35.19;101475.65;105880;1257;60242;-88
2023/06/07 05:25:09;;;;;;;15.00;7.80;;;;;;;28.73;35.74;101474.17;106146;1257;60148;-88
2023/06/07 05:27:37;;;;;;;14.90;7.50;;;;;;;29.00;34.57;101475.64;106115;1260;73428;-87
2023/06/07 05:30:06;;;;;;;13.10;6.90;;;;;;;29.25;33.39;101472.19;105776;1258;63844;-85
2023/06/07 05:32:35;;;;;;;11.80;6.40;;;;;;;29.48;32.62;101470.84;105927;1257;72648;-89
2023/06/07 05:35:03;;;;;;;12.70;6.70;;;;;;;29.72;31.23;101474.10;105852;1256;60433;-88
2023/06/07 05:37:31;;;;;;;13.40;7.60;;;;;;;29.97;31.22;101473.64;106056;1256;62035;-90
2023/06/07 05:39:59;;;;;;;12.20;6.60;;;;;;;30.18;31.63;101468.92;105819;1258;73163;-89
2023/06/07 05:42:26;;;;;;;17.20;7.70;;;;;;;30.39;31.70;101470.61;105718;1253;62536;-89
2023/06/07 05:44:54;;;;;;;11.90;6.80;;;;;;;30.61;31.66;101471.34;105822;1257;72669;-91
2023/06/07 05:47:25;;;;;;;18.60;6.90;;;;;;;30.85;31.48;101475.05;105945;1254;60855;-89
2023/06/07 05:49:53;;;;;;;13.90;5.90;;;;;;;31.08;30.74;101466.35;105862;1256;60318;-87
2023/06/07 05:52:20;;;;;;;14.30;7.00;;;;;;;31.31;30.62;101469.94;105881;1254;71895;-85
2023/06/07 05:54:48;;;;;;;12.50;5.90;;;;;;;31.54;30.33;101465.45;105917;1257;63825;-87
2023/06/07 05:57:15;;;;;;;11.60;7.30;;;;;;;31.73;29.68;101462.04;105914;1257;71523;-86
2023/06/07 05:59:43;;;;;;;10.30;5.30;;;;;;;31.91;28.48;101462.66;105873;1254;59638;-87
2023/06/07 06:02:10;;;;;;;13.40;6.00;;;;;;;32.08;28.49;101459.88;105802;1256;59574;-86
2023/06/07 06:04:39;;;;;;;14.30;4.60;;;;;;;32.24;27.30;101456.45;105762;1256;71658;-88
2023/06/07 06:07:06;;;;;;;12.10;4.50;;;;;;;32.36;27.25;101456.80;105839;1257;62791;-89
2023/06/07 06:09:33;;;;;;;17.00;3.80;;;;;;;32.50;26.63;101456.90;105793;1256;72728;-88
2023/06/07 06:11:59;;;;;;;11.20;4.30;;;;;;;32.65;25.54;101453.96;105928;1257;59724;-86
2023/06/07 06:14:27;;;;;;;8.70;5.20;;;;;;;32.81;25.13;101452.52;105831;1254;60225;-89
2023/06/07 06:16:54;;;;;;;7.70;4.30;;;;;;;32.97;24.93;101455.20;106015;1257;72894;-88
2023/06/07 06:19:21;;;;;;;11.50;5.50;;;;;;;33.11;24.86;101452.27;106024;1256;63917;-87
2023/06/07 06:21:48;;;;;;;10.10;3.70;;;;;;;33.30;24.88;101450.78;107179;1253;72672;-89
2023/06/07 06:24:15;;;;;;;8.50;3.60;;;;;;;33.49;24.37;101449.55;109610;1253;59368;-87
2023/06/07 06:26:43;;;;;;;8.90;3.40;;;;;;;33.57;23.71;101448.11;107409;1254;59718;-88
2023/06/07 06:29:10;;;;;;;6.90;3.90;;;;;;;33.60;23.03;101442.98;106135;1253;72001;-89
2023/06/07 06:31:39;;;;;;;13.40;3.60;;;;;;;33.67;24.07;101445.52;106102;1255;63885;-91
2023/06/07 06:34:07;;;;;;;12.20;3.90;;;;;;;33.87;23.30;101447.38;106109;1253;72832;-91
2023/06/07 06:36:34;;;;;;;9.40;4.20;;;;;;;34.09;23.38;101448.08;106002;1256;60423;-89
2023/06/07 06:39:03;;;;;;;8.30;3.50;;;;;;;34.22;24.04;101447.44;106045;1255;60418;-88
2023/06/07 06:41:30;;;;;;;9.70;4.10;;;;;;;34.33;23.65;101447.50;105964;1254;73023;-87
2023/06/07 06:43:58;;;;;;;6.20;3.80;;;;;;;34.45;23.64;101446.80;106475;1256;64180;-90
2023/06/07 06:46:25;;;;;;;11.30;3.60;;;;;;;34.58;23.34;101443.06;106038;1257;72675;-87
2023/06/07 06:48:52;;;;;;;11.20;3.60;;;;;;;34.70;22.62;101440.96;105936;1257;60404;-91
2023/06/07 06:51:37;;;;;;;6.20;3.10;;;;;;;34.85;22.07;101439.32;105970;1256;60060;-88
2023/06/07 06:54:04;;;;;;;8.10;3.90;;;;;;;34.97;22.36;101439.63;105972;1256;72808;-87
2023/06/07 06:56:32;;;;;;;9.80;3.70;;;;;;;35.04;22.71;101444.50;105928;1257;63646;-88
2023/06/07 06:58:58;;;;;;;8.00;4.10;;;;;;;35.13;22.61;101442.73;106022;1254;72457;-89
2023/06/07 07:01:36;;;;;;;9.00;3.60;;;;;;;35.23;22.99;101444.59;106025;1255;60301;-88
2023/06/07 07:04:06;;;;;;;6.90;3.60;;;;;;;35.35;22.49;101442.86;105957;1260;59687;-88
2023/06/07 07:06:34;;;;;;;6.60;3.60;;;;;;;35.47;22.16;101443.02;106052;1256;73077;-87
2023/06/07 07:09:00;;;;;;;11.50;4.10;;;;;;;35.57;21.98;101439.62;105923;1255;63791;-88
2023/06/07 07:11:28;;;;;;;6.20;3.50;;;;;;;35.62;22.18;101437.31;106188;1253;71217;-88
2023/06/07 07:13:58;;;;;;;8.60;3.70;;;;;;;35.67;21.98;101437.27;105829;1256;60397;-89
2023/06/07 07:16:25;;;;;;;7.10;4.00;;;;;;;35.75;21.40;101433.93;105940;1253;60799;-91
2023/06/07 07:18:52;;;;;;;7.90;3.70;;;;;;;35.88;20.97;101440.17;105922;1257;71860;-89
2023/06/07 07:21:20;;;;;;;6.50;3.50;;;;;;;36.06;20.33;101441.02;105915;1255;63841;-87
2023/06/07 07:23:47;;;;;;;9.50;4.70;;;;;;;36.16;19.71;101440.25;105843;1256;63911;-88
2023/06/07 07:26:14;;;;;;;5.40;3.40;;;;;;;36.20;19.64;101440.55;106064;1253;60125;-90
2023/06/07 07:28:40;;;;;;;6.40;3.60;;;;;;;36.26;20.35;101438.83;105950;1253;60007;-88
2023/06/07 07:31:07;;;;;;;7.70;3.60;;;;;;;36.35;21.19;101441.52;105716;1253;72825;-89
2023/06/07 07:33:35;;;;;;;7.40;3.60;;;;;;;36.42;20.83;101438.76;106004;1255;59646;-87
2023/06/07 07:36:03;;;;;;;3.70;2.90;;;;;;;36.46;20.21;101438.38;105949;1255;72788;-91
2023/06/07 07:38:32;;;;;;;7.90;3.80;;;;;;;36.53;19.65;101440.20;105848;1254;60401;-88
2023/06/07 07:40:59;;;;;;;10.50;2.90;;;;;;;36.58;19.38;101445.49;105859;1254;60489;-88
2023/06/07 07:43:26;;;;;;;6.20;3.30;;;;;;;36.62;19.72;101443.94;105922;1256;74454;-91
2023/06/07 07:45:56;;;;;;;6.40;3.30;;;;;;;36.67;20.28;101444.04;106105;1256;60416;-90
2023/06/07 07:48:24;;;;;;;12.10;3.70;;;;;;;36.70;20.42;101441.46;105778;1257;72458;-86
2023/06/07 07:50:53;;;;;;;6.20;3.50;;;;;;;36.72;19.49;101435.59;106080;1255;60906;-88
2023/06/07 07:53:21;;;;;;;5.20;3.60;;;;;;;36.74;19.38;101431.95;105873;1255;60397;-87
2023/06/07 07:55:47;;;;;;;8.00;3.30;;;;;;;36.87;20.39;101431.23;105704;1253;73894;-90
2023/06/07 07:58:15;;;;;;;6.40;4.10;;;;;;;36.97;19.61;101433.22;105906;1256;60335;-88
2023/06/07 08:00:42;;;;;;;9.70;5.70;;;;;;;37.07;19.27;101435.48;105975;1253;64071;-88
2023/06/07 08:03:10;;;;;;;4.20;2.80;;;;;;;37.13;18.59;101434.16;105947;1255;60627;-87
2023/06/07 08:05:37;;;;;;;9.10;2.80;;;;;;;37.07;18.80;101431.63;106001;1256;60432;-90
2023/06/07 08:08:05;;;;;;;8.60;2.90;;;;;;;37.04;19.06;101431.04;106457;1257;63905;-83
2023/06/07 08:10:34;;;;;;;4.10;2.40;;;;;;;36.95;18.99;101431.00;108169;1253;60336;-84
2023/06/07 08:13:01;;;;;;;7.00;2.80;;;;;;;36.93;19.55;101429.60;107124;1254;71510;-87
2023/06/07 08:15:29;;;;;;;4.90;2.50;;;;;;;37.05;19.84;101429.30;106068;1257;60542;-89
2023/06/07 08:17:56;;;;;;;4.40;2.00;;;;;;;37.21;19.47;101426.55;105888;1252;60411;-86
2023/06/07 08:20:23;;;;;;;3.20;2.20;;;;;;;37.29;19.80;101424.48;105916;1254;64987;-89
2023/06/07 08:22:50;;;;;;;4.40;2.00;;;;;;;37.25;20.11;101424.05;105901;1257;60342;-89
2023/06/07 08:25:17;;;;;;;3.70;1.70;;;;;;;37.20;20.30;101423.05;105957;1256;63986;-90
2023/06/07 08:27:46;;;;;;;4.80;1.90;;;;;;;37.22;20.60;101424.30;105877;1256;60435;-90
2023/06/07 08:30:13;;;;;;;7.90;2.00;;;;;;;37.32;20.15;101426.50;106017;1255;60912;-90
2023/06/07 08:32:42;;;;;;;6.80;2.20;;;;;;;37.41;20.15;101423.70;105891;1253;65292;-87
2023/06/07 08:35:10;;;;;;;3.20;1.70;;;;;;;37.45;20.29;101428.39;105790;1253;60377;-87
2023/06/07 08:37:37;;;;;;;3.70;2.20;;;;;;;37.46;19.26;101420.45;105839;1253;64990;-93
2023/06/07 08:40:05;;;;;;;6.70;1.90;;;;;;;37.44;19.51;101420.44;106033;1253;60511;-91
2023/06/07 08:42:33;;;;;;;3.10;1.90;;;;;;;37.50;19.81;101423.58;105845;1254;61407;-91
2023/06/07 08:45:00;;;;;;;2.80;1.60;;;;;;;37.56;18.26;101421.00;105914;1254;65217;-88
2023/06/07 08:47:28;;;;;;;3.70;1.40;;;;;;;37.50;18.36;101420.03;105982;1256;60880;-88
2023/06/07 08:49:56;;;;;;;2.60;1.80;;;;;;;37.44;19.32;101425.41;105970;1257;63837;-92
2023/06/07 08:52:25;;;;;;;2.80;1.40;;;;;;;37.47;19.22;101417.30;105915;1254;60508;-87
2023/06/07 08:54:55;;;;;;;2.70;1.30;;;;;;;37.43;19.00;101421.95;105890;1254;60483;-89
2023/06/07 08:57:22;;;;;;;2.60;1.70;;;;;;;37.38;19.38;101427.70;105940;1253;65617;-88
2023/06/07 08:59:48;;;;;;;3.50;1.80;;;;;;;37.27;18.52;101423.36;105846;1254;60459;-86
2023/06/07 09:02:16;;;;;;;2.30;1.80;;;;;;;37.14;17.95;101425.14;108048;1252;62545;-87
2023/06/07 09:04:43;;;;;;;2.30;1.40;;;;;;;37.01;17.68;101423.22;106563;1253;60345;-88
2023/06/07 09:07:11;;;;;;;3.10;1.40;;;;;;;36.96;17.53;101432.38;106218;1254;60317;-86
2023/06/07 09:09:43;;;;;;;5.50;1.70;;;;;;;36.97;17.53;101424.86;106120;1255;73811;-89
2023/06/07 09:12:10;;;;;;;2.80;2.10;;;;;;;36.98;18.66;101426.67;106072;1254;63875;-88
2023/06/07 09:14:42;;;;;;;2.90;1.70;;;;;;;37.02;17.87;101424.66;105967;1253;64986;-92
2023/06/07 09:17:09;;;;;;;4.30;1.90;;;;;;;37.06;18.29;101422.27;105772;1257;60517;-88
2023/06/07 09:19:39;;;;;;;3.40;1.90;;;;;;;37.16;18.92;101423.81;105952;1253;60520;-87
2023/06/07 09:22:14;;;;;;;3.30;1.70;;;;;;;37.34;19.90;101422.98;106040;1253;64986;-90
2023/06/07 09:24:42;;;;;;;1.80;1.60;;;;;;;37.51;19.71;101421.58;109650;1253;57818;-87
2023/06/07 09:27:09;;;;;;;4.00;1.70;;;;;;;37.50;19.68;101420.09;108641;1258;62765;-87
2023/06/07 09:29:43;;;;;;;6.10;2.30;;;;;;;37.37;19.63;101416.98;106127;1253;60485;-89
2023/06/07 09:32:17;;;;;;;3.70;1.80;;;;;;;37.16;20.05;101416.14;106004;1253;60486;-90
2023/06/07 09:34:44;;;;;;;5.80;1.70;;;;;;;37.02;20.20;101413.66;106004;1256;63841;-90
2023/06/07 09:37:11;;;;;;;2.70;2.00;;;;;;;36.96;20.36;101412.46;106108;1256;60428;-89
2023/06/07 09:39:38;;;;;;;5.40;2.30;;;;;;;36.86;20.78;101412.09;106086;1252;64106;-88
2023/06/07 09:42:15;;;;;;;3.20;1.60;;;;;;;36.71;20.19;101415.52;106061;1254;60633;-90
2023/06/07 09:44:43;;;;;;;1.40;1.30;;;;;;;36.43;20.37;101412.43;105992;1254;60540;-91
2023/06/07 09:47:21;;;;;;;5.20;2.20;;;;;;;36.32;20.51;101411.14;106114;1254;65430;-86
2023/06/07 09:49:48;;;;;;;4.20;1.90;;;;;;;36.11;20.77;101410.05;106086;1252;60602;-89
2023/06/07 09:52:15;;;;;;;7.10;1.60;;;;;;;35.74;21.25;101409.13;105888;1254;62869;-87
2023/06/07 09:54:43;;;;;;;4.10;1.60;;;;;;;35.24;21.58;101410.94;106010;1255;60469;-86
2023/06/07 09:57:10;;;;;;;2.40;1.70;;;;;;;34.68;22.01;101411.90;106040;1253;60514;-89
2023/06/07 09:59:45;;;;;;;2.20;1.60;;;;;;;34.18;22.55;101412.72;105959;1255;72760;-91
2023/06/07 10:02:28;;;;;;;4.10;2.10;;;;;;;33.65;23.30;101409.43;105887;1257;64327;-90
2023/06/07 10:04:55;;;;;;;4.30;2.10;;;;;;;33.14;24.32;101407.80;105862;1253;72865;-87
2023/06/07 10:07:38;;;;;;;4.70;2.30;;;;;;;32.67;25.32;101406.63;106018;1252;60407;-87
2023/06/07 10:10:07;;;;;;;5.40;2.20;;;;;;;32.21;25.49;101404.54;105985;1254;60460;-90
2023/06/07 10:12:42;;;;;;;5.10;2.20;;;;;;;31.82;25.97;101403.66;105811;1254;73861;-88
2023/06/07 10:15:14;;;;;;;3.20;1.90;;;;;;;31.47;26.14;101401.58;106238;1252;63839;-85
2023/06/07 10:17:45;;;;;;;4.90;2.50;;;;;;;31.17;25.26;101399.68;105988;1255;72581;-90
2023/06/07 10:20:16;;;;;;;4.60;2.20;;;;;;;30.93;25.67;101399.16;107131;1253;60504;-89
2023/06/07 10:22:45;;;;;;;4.10;1.70;;;;;;;30.74;26.25;101399.02;106584;1256;60300;-89
2023/06/07 10:25:16;;;;;;;6.10;2.10;;;;;;;30.60;26.92;101395.63;106419;1254;73871;-88
2023/06/07 10:28:05;;;;;;;4.20;1.90;;;;;;;30.45;25.53;101391.60;106126;1254;64033;-91
2023/06/07 10:30:32;;;;;;;2.20;1.50;;;;;;;30.28;25.06;101391.21;106006;1252;72453;-88
2023/06/07 10:33:00;;;;;;;6.40;2.20;;;;;;;30.23;24.68;101391.18;105766;1258;60591;-87
2023/06/07 10:35:27;;;;;;;7.20;2.00;;;;;;;30.15;24.72;101388.11;105793;1253;60504;-88
2023/06/07 10:37:54;;;;;;;1.40;1.30;;;;;;;30.10;25.55;101388.77;106438;1256;73706;-88
2023/06/07 10:40:21;;;;;;;3.90;1.30;;;;;;;30.01;25.08;101388.65;106248;1253;63885;-90
2023/06/07 10:42:51;;;;;;;2.80;1.60;;;;;;;29.93;24.14;101385.52;106357;1257;73141;-88
2023/06/07 10:45:20;;;;;;;6.70;1.60;;;;;;;29.92;24.36;101384.86;106235;1258;60511;-88
2023/06/07 10:47:50;;;;;;;7.80;2.70;;;;;;;30.08;25.39;101384.30;106354;1256;60634;-88
2023/06/07 10:50:44;;;;;;;4.30;2.20;;;;;;;30.35;26.52;101380.98;106536;1256;74045;-89
2023/06/07 10:53:50;;;;;;;8.60;2.30;;;;;;;30.84;26.68;101376.54;106288;1255;66091;-88
2023/06/07 10:56:28;;;;;;;9.40;2.70;;;;;;;31.36;26.11;101375.86;106358;1256;72541;-87
2023/06/07 10:59:14;;;;;;;7.20;3.00;;;;;;;31.79;25.59;101378.44;106291;1256;60459;-90
2023/06/07 11:01:43;;;;;;;4.00;2.50;;;;;;;32.24;24.62;101378.51;106377;1256;60626;-90
2023/06/07 11:04:30;;;;;;;3.10;2.40;;;;;;;32.57;23.70;101375.05;106043;1254;72446;-89
2023/06/07 11:07:20;;;;;;;5.00;2.10;;;;;;;32.86;23.69;101374.72;106008;1258;63790;-87
2023/06/07 11:10:08;;;;;;;3.30;2.30;;;;;;;33.16;23.73;101371.05;105980;1256;71505;-92
2023/06/07 11:12:36;;;;;;;5.60;2.50;;;;;;;33.44;23.21;101371.14;105983;1256;60531;-88
2023/06/07 11:15:20;;;;;;;2.80;1.90;;;;;;;33.60;22.50;101369.90;105871;1258;60496;-87
2023/06/07 11:17:55;;;;;;;5.10;2.40;;;;;;;33.70;22.34;101370.84;106934;1252;73884;-89
2023/06/07 11:20:36;;;;;;;3.00;1.80;;;;;;;33.78;21.21;101368.81;109360;1252;62926;-86
2023/06/07 11:23:29;;;;;;;3.10;1.70;;;;;;;33.80;21.48;101363.64;109065;1252;73011;-87
2023/06/07 11:26:02;;;;;;;4.30;1.70;;;;;;;33.86;21.52;101362.86;108467;1253;60346;-87